Etusivu
METAR-TAF:

METAR-TAF

Lentoasemat :

John H. Batten Airport

Racine, Wisconsin, Yhdysvallat

Leveyspiiri: 42-45-31N, Pituuspiiri: 087-49-04W, korkeus merenpinnasta: 205 m

Tämänhetkinen sää

Tämä raportti tehtiin 47 minuuttia sitten, kello 03.53 UTC
Tuuli 5 kn lounaasta
Lämpötila -13°C
Kosteus 66%
Ilmanpaine 1028 hPa
Näkyvyys: 16.1 km
selkeää

METAR: KRAC 130353Z AUTO 22005KT 10SM CLR M13/M18 A3037 RMK AO2 SLP300 T11281183

Aika: 22:40 (04:40 UTC)


TAF: puuttuu

Säähavainnot ja -ennusteet yli 4000 lentoasemalta (METAR- ja TAF-raportit).

Käytössä olevat sääasemat on merkitty karttaan keltaisilla ja punaisilla pisteillä.

Aseta hiiri pisteen päälle nähdäksesi sääaseman nimen.

Klikkaa sitten nähdäksesi säähavainnot ja -ennusteet.

Kartan vaihtaminen: klikkaa mustalla rastilla varustettuja vihreitä pisteitä, niin voit zoomata sisään; viivalla varustettua vihreää pistettä, niin voit zoomata ulos tai vihreitä nuolia, niin pääset viereisille kartoille.


METAR-TAF: